sensor_id;sensor_type;location;lat;lon;timestamp;pressure;altitude;pressure_sealevel;temperature;humidity
18795;BME280;29610;49.022;12.114;2023-08-08T13:37:04;97567.44;;;26.82;52.33
18795;BME280;29610;49.022;12.114;2023-08-08T13:39:54;97564.22;;;27.19;47.80
18795;BME280;29610;49.022;12.114;2023-08-08T13:42:22;97566.28;;;26.99;50.33
18795;BME280;29610;49.022;12.114;2023-08-08T13:44:51;97566.47;;;27.60;48.13
18795;BME280;29610;49.022;12.114;2023-08-08T13:47:21;97570.22;;;27.54;46.74
18795;BME280;29610;49.022;12.114;2023-08-08T13:49:49;97564.91;;;27.59;47.80
18795;BME280;29610;49.022;12.114;2023-08-08T13:52:20;97556.34;;;27.82;46.01
18795;BME280;29610;49.022;12.114;2023-08-08T13:54:48;97568.56;;;27.56;44.58
18795;BME280;29610;49.022;12.114;2023-08-08T13:57:16;97567.53;;;27.50;43.80
18795;BME280;29610;49.022;12.114;2023-08-08T13:59:44;97565.44;;;27.38;44.44
18795;BME280;29610;49.022;12.114;2023-08-08T14:02:13;97577.13;;;27.49;46.36
18795;BME280;29610;49.022;12.114;2023-08-08T14:04:41;97564.38;;;27.48;43.46
18795;BME280;29610;49.022;12.114;2023-08-08T14:07:09;97565.81;;;26.85;42.79
18795;BME280;29610;49.022;12.114;2023-08-08T14:09:39;97558.94;;;26.70;43.12
18795;BME280;29610;49.022;12.114;2023-08-08T14:12:07;97573.03;;;26.01;47.60
18795;BME280;29610;49.022;12.114;2023-08-08T14:14:36;97555.81;;;26.48;43.81
18795;BME280;29610;49.022;12.114;2023-08-08T14:17:04;97547.81;;;26.70;44.06
18795;BME280;29610;49.022;12.114;2023-08-08T14:19:32;97549.47;;;26.67;42.56
18795;BME280;29610;49.022;12.114;2023-08-08T14:22:00;97542.69;;;26.06;43.82
18795;BME280;29610;49.022;12.114;2023-08-08T14:24:29;97547.47;;;25.82;45.13
18795;BME280;29610;49.022;12.114;2023-08-08T14:26:58;97554.28;;;25.81;45.33
18795;BME280;29610;49.022;12.114;2023-08-08T14:29:27;97549.03;;;25.83;46.41
18795;BME280;29610;49.022;12.114;2023-08-08T14:31:55;97550.69;;;26.04;43.82
18795;BME280;29610;49.022;12.114;2023-08-08T14:34:31;97551.13;;;25.79;45.96
18795;BME280;29610;49.022;12.114;2023-08-08T14:37:00;97552.44;;;25.71;47.50
18795;BME280;29610;49.022;12.114;2023-08-08T14:39:29;97549.00;;;25.64;47.47
18795;BME280;29610;49.022;12.114;2023-08-08T14:41:58;97561.03;;;25.57;48.60
18795;BME280;29610;49.022;12.114;2023-08-08T14:44:27;97551.97;;;25.76;48.77
18795;BME280;29610;49.022;12.114;2023-08-08T14:46:55;97552.97;;;25.63;47.55
18795;BME280;29610;49.022;12.114;2023-08-08T14:49:23;97546.50;;;25.69;47.69
18795;BME280;29610;49.022;12.114;2023-08-08T14:51:53;97560.69;;;25.78;51.94
18795;BME280;29610;49.022;12.114;2023-08-08T14:54:21;97548.28;;;25.83;49.52
18795;BME280;29610;49.022;12.114;2023-08-08T14:56:49;97565.34;;;25.62;48.79
18795;BME280;29610;49.022;12.114;2023-08-08T14:59:18;97555.28;;;25.45;48.61
18795;BME280;29610;49.022;12.114;2023-08-08T15:01:47;97549.78;;;25.41;49.70
18795;BME280;29610;49.022;12.114;2023-08-08T15:04:15;97560.78;;;25.48;50.22
18795;BME280;29610;49.022;12.114;2023-08-08T15:06:43;97559.22;;;25.47;47.06
18795;BME280;29610;49.022;12.114;2023-08-08T15:09:12;97559.41;;;25.33;46.08
18795;BME280;29610;49.022;12.114;2023-08-08T15:11:41;97560.25;;;25.34;46.98
18795;BME280;29610;49.022;12.114;2023-08-08T15:14:09;97566.84;;;25.43;47.47
18795;BME280;29610;49.022;12.114;2023-08-08T15:16:38;97561.59;;;25.72;47.79
18795;BME280;29610;49.022;12.114;2023-08-08T15:19:07;97560.19;;;25.60;44.78
18795;BME280;29610;49.022;12.114;2023-08-08T15:21:35;97565.22;;;25.69;47.40
18795;BME280;29610;49.022;12.114;2023-08-08T15:24:04;97567.81;;;25.56;45.00
18795;BME280;29610;49.022;12.114;2023-08-08T15:26:32;97564.41;;;25.45;45.64
18795;BME280;29610;49.022;12.114;2023-08-08T15:29:00;97566.16;;;25.32;45.03
18795;BME280;29610;49.022;12.114;2023-08-08T15:31:28;97571.91;;;25.22;43.93
18795;BME280;29610;49.022;12.114;2023-08-08T15:33:58;97568.22;;;25.28;44.59
18795;BME280;29610;49.022;12.114;2023-08-08T15:36:27;97564.31;;;25.26;45.63
18795;BME280;29610;49.022;12.114;2023-08-08T15:38:55;97572.97;;;25.05;46.18
18795;BME280;29610;49.022;12.114;2023-08-08T15:41:23;97567.09;;;24.96;44.07
18795;BME280;29610;49.022;12.114;2023-08-08T15:43:52;97575.03;;;24.97;44.07
18795;BME280;29610;49.022;12.114;2023-08-08T15:46:20;97570.47;;;24.84;43.09
18795;BME280;29610;49.022;12.114;2023-08-08T15:48:48;97576.06;;;24.46;43.41
18795;BME280;29610;49.022;12.114;2023-08-08T15:51:18;97570.13;;;24.44;42.67
18795;BME280;29610;49.022;12.114;2023-08-08T15:53:46;97567.09;;;24.32;42.58
18795;BME280;29610;49.022;12.114;2023-08-08T15:56:14;97576.88;;;24.43;42.23
18795;BME280;29610;49.022;12.114;2023-08-08T15:58:43;97568.75;;;24.60;42.60
18795;BME280;29610;49.022;12.114;2023-08-08T16:01:11;97574.13;;;24.43;43.03
18795;BME280;29610;49.022;12.114;2023-08-08T16:03:39;97564.34;;;24.62;43.67
18795;BME280;29610;49.022;12.114;2023-08-08T16:06:07;97562.38;;;24.29;43.82
18795;BME280;29610;49.022;12.114;2023-08-08T16:08:36;97569.56;;;24.26;44.96
18795;BME280;29610;49.022;12.114;2023-08-08T16:11:05;97564.16;;;24.12;43.80
18795;BME280;29610;49.022;12.114;2023-08-08T16:13:33;97565.34;;;24.11;43.92
18795;BME280;29610;49.022;12.114;2023-08-08T16:16:01;97563.38;;;24.12;44.72
18795;BME280;29610;49.022;12.114;2023-08-08T16:18:29;97562.44;;;23.81;45.96
18795;BME280;29610;49.022;12.114;2023-08-08T16:20:58;97568.38;;;23.83;43.40
18795;BME280;29610;49.022;12.114;2023-08-08T16:23:27;97563.78;;;23.66;44.95
18795;BME280;29610;49.022;12.114;2023-08-08T16:25:56;97557.44;;;23.66;45.16
18795;BME280;29610;49.022;12.114;2023-08-08T16:28:24;97563.56;;;23.47;44.57
18795;BME280;29610;49.022;12.114;2023-08-08T16:30:53;97569.63;;;23.31;46.04
18795;BME280;29610;49.022;12.114;2023-08-08T16:33:21;97576.38;;;23.23;46.23
18795;BME280;29610;49.022;12.114;2023-08-08T16:35:49;97576.81;;;23.18;46.21
18795;BME280;29610;49.022;12.114;2023-08-08T16:38:18;97565.00;;;23.07;47.59
18795;BME280;29610;49.022;12.114;2023-08-08T16:40:46;97569.84;;;22.92;45.96
18795;BME280;29610;49.022;12.114;2023-08-08T16:43:16;97570.16;;;23.05;45.69
18795;BME280;29610;49.022;12.114;2023-08-08T16:45:44;97573.69;;;23.09;46.58
18795;BME280;29610;49.022;12.114;2023-08-08T16:48:12;97571.72;;;23.09;46.38
18795;BME280;29610;49.022;12.114;2023-08-08T16:50:40;97570.47;;;23.17;46.90
18795;BME280;29610;49.022;12.114;2023-08-08T16:53:08;97567.69;;;23.17;47.51
18795;BME280;29610;49.022;12.114;2023-08-08T16:55:37;97580.81;;;23.13;47.35
18795;BME280;29610;49.022;12.114;2023-08-08T16:58:05;97570.16;;;23.08;47.47
18795;BME280;29610;49.022;12.114;2023-08-08T17:00:34;97580.09;;;22.99;47.84
18795;BME280;29610;49.022;12.114;2023-08-08T17:03:03;97574.16;;;22.97;48.57
18795;BME280;29610;49.022;12.114;2023-08-08T17:05:33;97575.28;;;23.10;48.37
18795;BME280;29610;49.022;12.114;2023-08-08T17:08:02;97579.19;;;23.20;49.15
18795;BME280;29610;49.022;12.114;2023-08-08T17:10:31;97576.03;;;23.17;49.77
18795;BME280;29610;49.022;12.114;2023-08-08T17:13:00;97586.69;;;23.23;48.93
18795;BME280;29610;49.022;12.114;2023-08-08T17:15:28;97584.03;;;23.05;51.97
18795;BME280;29610;49.022;12.114;2023-08-08T17:17:57;97593.19;;;22.95;51.74
18795;BME280;29610;49.022;12.114;2023-08-08T17:20:26;97592.91;;;22.72;51.11
18795;BME280;29610;49.022;12.114;2023-08-08T17:22:54;97588.59;;;22.50;55.26
18795;BME280;29610;49.022;12.114;2023-08-08T17:25:23;97591.88;;;22.27;54.06
18795;BME280;29610;49.022;12.114;2023-08-08T17:27:51;97595.03;;;22.19;52.71
18795;BME280;29610;49.022;12.114;2023-08-08T17:30:20;97593.88;;;22.06;58.76
18795;BME280;29610;49.022;12.114;2023-08-08T17:32:48;97601.03;;;21.86;59.70
18795;BME280;29610;49.022;12.114;2023-08-08T17:35:18;97589.94;;;21.96;56.54
18795;BME280;29610;49.022;12.114;2023-08-08T17:37:46;97601.84;;;21.79;56.50
18795;BME280;29610;49.022;12.114;2023-08-08T17:40:15;97604.16;;;21.73;59.65
18795;BME280;29610;49.022;12.114;2023-08-08T17:42:43;97599.44;;;21.95;57.28
18795;BME280;29610;49.022;12.114;2023-08-08T17:45:12;97601.78;;;22.14;56.76
18795;BME280;29610;49.022;12.114;2023-08-08T17:47:40;97596.97;;;22.32;57.39
18795;BME280;29610;49.022;12.114;2023-08-08T17:50:08;97592.63;;;22.28;58.53
18795;BME280;29610;49.022;12.114;2023-08-08T17:52:38;97594.25;;;22.25;58.57
18795;BME280;29610;49.022;12.114;2023-08-08T17:55:07;97600.53;;;22.43;60.21
18795;BME280;29610;49.022;12.114;2023-08-08T17:57:36;97597.38;;;22.38;59.16
18795;BME280;29610;49.022;12.114;2023-08-08T18:00:06;97602.50;;;22.43;58.15
18795;BME280;29610;49.022;12.114;2023-08-08T18:02:36;97598.56;;;22.26;60.36
18795;BME280;29610;49.022;12.114;2023-08-08T18:05:06;97601.78;;;22.07;62.60
18795;BME280;29610;49.022;12.114;2023-08-08T18:07:35;97601.00;;;21.93;66.04
18795;BME280;29610;49.022;12.114;2023-08-08T18:10:06;97606.13;;;21.45;72.92
18795;BME280;29610;49.022;12.114;2023-08-08T18:12:34;97610.09;;;21.26;85.00
18795;BME280;29610;49.022;12.114;2023-08-08T18:15:04;97610.84;;;21.06;98.19
18795;BME280;29610;49.022;12.114;2023-08-08T18:17:33;97620.97;;;20.81;94.56
18795;BME280;29610;49.022;12.114;2023-08-08T18:20:01;97612.63;;;20.67;100.00
18795;BME280;29610;49.022;12.114;2023-08-08T18:22:29;97611.03;;;20.55;100.00
18795;BME280;29610;49.022;12.114;2023-08-08T18:24:58;97615.69;;;20.44;100.00
18795;BME280;29610;49.022;12.114;2023-08-08T18:27:27;97609.34;;;20.29;100.00
18795;BME280;29610;49.022;12.114;2023-08-08T18:29:55;97608.38;;;20.08;100.00
18795;BME280;29610;49.022;12.114;2023-08-08T18:32:24;97615.16;;;20.17;100.00
18795;BME280;29610;49.022;12.114;2023-08-08T18:34:53;97627.41;;;20.20;100.00
18795;BME280;29610;49.022;12.114;2023-08-08T18:37:21;97617.91;;;20.17;100.00
18795;BME280;29610;49.022;12.114;2023-08-08T18:39:50;97620.59;;;20.07;100.00
18795;BME280;29610;49.022;12.114;2023-08-08T18:42:18;97620.59;;;20.10;100.00
18795;BME280;29610;49.022;12.114;2023-08-08T18:44:47;97631.31;;;20.15;100.00
18795;BME280;29610;49.022;12.114;2023-08-08T18:47:15;97633.63;;;20.10;100.00
18795;BME280;29610;49.022;12.114;2023-08-08T18:49:43;97639.50;;;20.05;100.00
18795;BME280;29610;49.022;12.114;2023-08-08T18:52:11;97640.25;;;19.98;100.00
18795;BME280;29610;49.022;12.114;2023-08-08T18:54:40;97639.78;;;19.93;100.00
18795;BME280;29610;49.022;12.114;2023-08-08T18:57:08;97644.16;;;19.94;100.00
18795;BME280;29610;49.022;12.114;2023-08-08T18:59:36;97646.50;;;19.92;100.00
18795;BME280;29610;49.022;12.114;2023-08-08T19:02:05;97645.69;;;19.91;100.00
18795;BME280;29610;49.022;12.114;2023-08-08T19:04:33;97640.16;;;19.91;100.00
18795;BME280;29610;49.022;12.114;2023-08-08T19:07:02;97650.69;;;19.72;100.00
18795;BME280;29610;49.022;12.114;2023-08-08T19:09:30;97653.06;;;19.73;100.00
18795;BME280;29610;49.022;12.114;2023-08-08T19:11:59;97654.22;;;19.72;100.00
18795;BME280;29610;49.022;12.114;2023-08-08T19:14:28;97653.78;;;19.67;100.00
18795;BME280;29610;49.022;12.114;2023-08-08T19:16:57;97653.03;;;19.70;100.00
18795;BME280;29610;49.022;12.114;2023-08-08T19:19:26;97645.53;;;19.70;100.00
18795;BME280;29610;49.022;12.114;2023-08-08T19:21:54;97649.34;;;19.55;100.00
18795;BME280;29610;49.022;12.114;2023-08-08T19:24:23;97654.06;;;19.51;100.00
18795;BME280;29610;49.022;12.114;2023-08-08T19:26:51;97648.91;;;19.50;100.00
18795;BME280;29610;49.022;12.114;2023-08-08T19:29:20;97652.44;;;19.50;100.00
18795;BME280;29610;49.022;12.114;2023-08-08T19:31:48;97653.16;;;19.44;100.00
18795;BME280;29610;49.022;12.114;2023-08-08T19:34:16;97657.75;;;19.29;100.00
18795;BME280;29610;49.022;12.114;2023-08-08T19:36:46;97651.41;;;19.25;100.00
18795;BME280;29610;49.022;12.114;2023-08-08T19:39:14;97645.66;;;19.04;100.00
18795;BME280;29610;49.022;12.114;2023-08-08T19:41:42;97649.06;;;18.94;100.00
18795;BME280;29610;49.022;12.114;2023-08-08T19:44:10;97654.97;;;18.92;100.00
18795;BME280;29610;49.022;12.114;2023-08-08T19:46:38;97653.34;;;18.88;100.00
18795;BME280;29610;49.022;12.114;2023-08-08T19:49:07;97657.72;;;18.92;100.00
18795;BME280;29610;49.022;12.114;2023-08-08T19:51:35;97656.69;;;18.71;100.00
18795;BME280;29610;49.022;12.114;2023-08-08T19:54:05;97660.88;;;18.61;100.00
18795;BME280;29610;49.022;12.114;2023-08-08T19:56:33;97664.44;;;18.62;100.00
18795;BME280;29610;49.022;12.114;2023-08-08T19:59:01;97657.34;;;18.61;100.00
18795;BME280;29610;49.022;12.114;2023-08-08T20:01:30;97651.00;;;18.57;100.00
18795;BME280;29610;49.022;12.114;2023-08-08T20:03:58;97654.97;;;18.59;100.00
18795;BME280;29610;49.022;12.114;2023-08-08T20:06:26;97652.16;;;18.56;100.00
18795;BME280;29610;49.022;12.114;2023-08-08T20:08:54;97653.06;;;18.63;100.00
18795;BME280;29610;49.022;12.114;2023-08-08T20:11:24;97649.94;;;18.65;100.00
18795;BME280;29610;49.022;12.114;2023-08-08T20:13:53;97655.97;;;18.77;100.00
18795;BME280;29610;49.022;12.114;2023-08-08T20:16:21;97656.06;;;18.84;100.00
18795;BME280;29610;49.022;12.114;2023-08-08T20:18:52;97660.78;;;18.84;100.00
18795;BME280;29610;49.022;12.114;2023-08-08T20:21:20;97659.19;;;18.83;100.00
18795;BME280;29610;49.022;12.114;2023-08-08T20:23:48;97663.97;;;18.89;100.00
18795;BME280;29610;49.022;12.114;2023-08-08T20:26:16;97661.19;;;18.86;100.00
18795;BME280;29610;49.022;12.114;2023-08-08T20:28:46;97658.34;;;18.79;100.00
18795;BME280;29610;49.022;12.114;2023-08-08T20:31:14;97656.44;;;18.83;100.00
18795;BME280;29610;49.022;12.114;2023-08-08T20:33:42;97656.25;;;18.69;100.00
18795;BME280;29610;49.022;12.114;2023-08-08T20:36:12;97658.47;;;18.56;100.00
18795;BME280;29610;49.022;12.114;2023-08-08T20:38:41;97653.84;;;18.64;100.00
18795;BME280;29610;49.022;12.114;2023-08-08T20:41:09;97659.00;;;18.69;100.00
18795;BME280;29610;49.022;12.114;2023-08-08T20:43:37;97667.69;;;18.71;100.00
18795;BME280;29610;49.022;12.114;2023-08-08T20:46:08;97660.84;;;18.58;100.00
18795;BME280;29610;49.022;12.114;2023-08-08T20:48:39;97656.91;;;18.59;100.00
18795;BME280;29610;49.022;12.114;2023-08-08T20:51:07;97652.59;;;18.58;100.00
18795;BME280;29610;49.022;12.114;2023-08-08T20:53:35;97652.47;;;18.47;100.00
18795;BME280;29610;49.022;12.114;2023-08-08T20:56:03;97659.81;;;18.40;100.00
18795;BME280;29610;49.022;12.114;2023-08-08T20:58:32;97665.16;;;18.59;100.00
18795;BME280;29610;49.022;12.114;2023-08-08T21:01:00;97664.66;;;18.50;100.00
18795;BME280;29610;49.022;12.114;2023-08-08T21:03:30;97669.53;;;18.60;100.00
18795;BME280;29610;49.022;12.114;2023-08-08T21:05:58;97666.03;;;18.63;100.00
18795;BME280;29610;49.022;12.114;2023-08-08T21:08:27;97667.16;;;18.58;100.00
18795;BME280;29610;49.022;12.114;2023-08-08T21:11:01;97663.28;;;18.63;100.00
18795;BME280;29610;49.022;12.114;2023-08-08T21:13:29;97658.13;;;18.61;100.00
18795;BME280;29610;49.022;12.114;2023-08-08T21:15:57;97664.44;;;18.62;100.00
18795;BME280;29610;49.022;12.114;2023-08-08T21:18:26;97664.59;;;18.43;100.00
18795;BME280;29610;49.022;12.114;2023-08-08T21:20:55;97649.78;;;18.54;100.00
18795;BME280;29610;49.022;12.114;2023-08-08T21:23:23;97660.00;;;18.54;100.00
18795;BME280;29610;49.022;12.114;2023-08-08T21:25:52;97651.75;;;18.54;100.00
18795;BME280;29610;49.022;12.114;2023-08-08T21:28:20;97648.81;;;18.40;100.00
18795;BME280;29610;49.022;12.114;2023-08-08T21:30:48;97650.28;;;18.34;100.00
18795;BME280;29610;49.022;12.114;2023-08-08T21:33:16;97651.88;;;18.35;100.00
18795;BME280;29610;49.022;12.114;2023-08-08T21:35:44;97649.06;;;18.31;100.00
18795;BME280;29610;49.022;12.114;2023-08-08T21:38:14;97647.13;;;18.35;100.00
18795;BME280;29610;49.022;12.114;2023-08-08T21:40:42;97654.63;;;18.35;100.00
18795;BME280;29610;49.022;12.114;2023-08-08T21:43:10;97647.84;;;18.29;100.00
18795;BME280;29610;49.022;12.114;2023-08-08T21:45:39;97649.31;;;18.23;100.00
18795;BME280;29610;49.022;12.114;2023-08-08T21:48:07;97644.53;;;18.16;100.00
18795;BME280;29610;49.022;12.114;2023-08-08T21:50:35;97643.72;;;18.16;100.00
18795;BME280;29610;49.022;12.114;2023-08-08T21:53:03;97643.38;;;18.17;100.00
18795;BME280;29610;49.022;12.114;2023-08-08T21:55:33;97637.88;;;18.17;100.00
18795;BME280;29610;49.022;12.114;2023-08-08T21:58:01;97637.75;;;18.10;100.00
18795;BME280;29610;49.022;12.114;2023-08-08T22:00:30;97642.13;;;18.15;100.00
18795;BME280;29610;49.022;12.114;2023-08-08T22:02:58;97642.56;;;18.17;100.00
18795;BME280;29610;49.022;12.114;2023-08-08T22:05:26;97640.38;;;18.00;100.00
18795;BME280;29610;49.022;12.114;2023-08-08T22:07:54;97636.06;;;18.02;100.00
18795;BME280;29610;49.022;12.114;2023-08-08T22:10:26;97640.75;;;17.98;100.00
18795;BME280;29610;49.022;12.114;2023-08-08T22:13:01;97644.84;;;17.85;100.00
18795;BME280;29610;49.022;12.114;2023-08-08T22:15:31;97634.97;;;17.81;100.00
18795;BME280;29610;49.022;12.114;2023-08-08T22:18:10;97628.69;;;17.58;100.00
18795;BME280;29610;49.022;12.114;2023-08-08T22:20:39;97629.81;;;17.53;100.00
18795;BME280;29610;49.022;12.114;2023-08-08T22:23:09;97632.81;;;17.25;100.00
18795;BME280;29610;49.022;12.114;2023-08-08T22:25:46;97626.16;;;17.26;100.00
18795;BME280;29610;49.022;12.114;2023-08-08T22:28:17;97630.16;;;17.29;100.00
18795;BME280;29610;49.022;12.114;2023-08-08T22:30:46;97633.56;;;17.22;100.00
18795;BME280;29610;49.022;12.114;2023-08-08T22:33:19;97636.44;;;17.29;100.00
18795;BME280;29610;49.022;12.114;2023-08-08T22:35:47;97634.06;;;17.28;100.00
18795;BME280;29610;49.022;12.114;2023-08-08T22:38:15;97627.03;;;17.30;100.00
18795;BME280;29610;49.022;12.114;2023-08-08T22:40:43;97618.56;;;17.39;100.00
18795;BME280;29610;49.022;12.114;2023-08-08T22:43:14;97622.88;;;17.40;100.00
18795;BME280;29610;49.022;12.114;2023-08-08T22:45:44;97621.44;;;17.46;100.00
18795;BME280;29610;49.022;12.114;2023-08-08T22:48:12;97619.13;;;17.48;100.00
18795;BME280;29610;49.022;12.114;2023-08-08T22:50:40;97613.84;;;17.39;100.00
18795;BME280;29610;49.022;12.114;2023-08-08T22:53:10;97615.31;;;17.33;100.00
18795;BME280;29610;49.022;12.114;2023-08-08T22:55:38;97615.13;;;17.23;100.00
18795;BME280;29610;49.022;12.114;2023-08-08T22:58:07;97611.53;;;17.19;100.00
18795;BME280;29610;49.022;12.114;2023-08-08T23:00:35;97616.53;;;17.13;100.00
18795;BME280;29610;49.022;12.114;2023-08-08T23:03:06;97619.31;;;17.17;100.00
18795;BME280;29610;49.022;12.114;2023-08-08T23:05:35;97608.91;;;17.03;100.00
18795;BME280;29610;49.022;12.114;2023-08-08T23:08:04;97619.16;;;17.06;100.00
18795;BME280;29610;49.022;12.114;2023-08-08T23:10:32;97626.69;;;16.90;100.00
18795;BME280;29610;49.022;12.114;2023-08-08T23:13:00;97620.53;;;16.97;100.00
18795;BME280;29610;49.022;12.114;2023-08-08T23:15:29;97616.03;;;17.08;100.00
18795;BME280;29610;49.022;12.114;2023-08-08T23:17:57;97615.97;;;17.04;100.00
18795;BME280;29610;49.022;12.114;2023-08-08T23:20:26;97619.94;;;17.07;100.00
18795;BME280;29610;49.022;12.114;2023-08-08T23:22:54;97619.06;;;17.03;100.00
18795;BME280;29610;49.022;12.114;2023-08-08T23:25:23;97611.34;;;17.08;100.00
18795;BME280;29610;49.022;12.114;2023-08-08T23:27:52;97619.06;;;17.03;100.00
18795;BME280;29610;49.022;12.114;2023-08-08T23:30:20;97611.56;;;17.00;100.00
18795;BME280;29610;49.022;12.114;2023-08-08T23:32:48;97613.41;;;16.92;100.00
18795;BME280;29610;49.022;12.114;2023-08-08T23:35:21;97620.00;;;16.88;100.00
18795;BME280;29610;49.022;12.114;2023-08-08T23:37:51;97615.72;;;16.90;100.00
18795;BME280;29610;49.022;12.114;2023-08-08T23:40:19;97614.03;;;17.05;100.00
18795;BME280;29610;49.022;12.114;2023-08-08T23:42:47;97616.94;;;17.15;100.00
18795;BME280;29610;49.022;12.114;2023-08-08T23:45:15;97621.16;;;17.09;100.00
18795;BME280;29610;49.022;12.114;2023-08-08T23:47:44;97615.91;;;17.23;100.00
18795;BME280;29610;49.022;12.114;2023-08-08T23:50:13;97616.28;;;17.22;100.00
18795;BME280;29610;49.022;12.114;2023-08-08T23:52:42;97623.47;;;17.30;100.00
18795;BME280;29610;49.022;12.114;2023-08-08T23:55:11;97620.06;;;17.36;100.00
18795;BME280;29610;49.022;12.114;2023-08-08T23:57:39;97624.13;;;17.20;100.00
